createdAt,value
2023-04-23T00:00:37.171Z,98105.13
2023-04-23T00:03:10.053Z,98110.25
2023-04-23T00:05:37.808Z,98107.00
2023-04-23T00:08:04.660Z,98100.81
2023-04-23T00:10:31.421Z,98098.66
2023-04-23T00:12:59.389Z,98108.63
2023-04-23T00:15:26.407Z,98105.97
2023-04-23T00:17:52.992Z,98111.34
2023-04-23T00:20:20.053Z,98100.56
2023-04-23T00:22:46.505Z,98108.88
2023-04-23T00:25:12.996Z,98105.13
2023-04-23T00:27:39.478Z,98110.78
2023-04-23T00:30:06.963Z,98109.44
2023-04-23T00:32:33.490Z,98103.78
2023-04-23T00:35:00.087Z,98102.69
2023-04-23T00:37:26.594Z,98104.31
2023-04-23T00:39:53.105Z,98103.22
2023-04-23T00:42:20.224Z,98107.53
2023-04-23T00:44:46.840Z,98108.63
2023-04-23T00:47:15.113Z,98105.91
2023-04-23T00:49:42.872Z,98110.72
2023-04-23T00:52:09.534Z,98107.81
2023-04-23T00:54:36.049Z,98101.88
2023-04-23T00:57:03.670Z,98109.13
2023-04-23T00:59:31.705Z,98106.16
2023-04-23T01:01:58.698Z,98112.88
2023-04-23T01:04:28.056Z,98107.50
2023-04-23T01:06:55.869Z,98106.41
2023-04-23T01:09:23.265Z,98101.56
2023-04-23T01:11:51.496Z,98095.63
2023-04-23T01:14:17.984Z,98102.09
2023-04-23T01:16:44.636Z,98088.06
2023-04-23T01:19:11.567Z,98099.88
2023-04-23T01:21:42.429Z,98100.41
2023-04-23T01:24:10.584Z,98097.97
2023-04-23T01:26:37.358Z,98094.22
2023-04-23T01:29:04.044Z,98095.53
2023-04-23T01:31:31.290Z,98093.41
2023-04-23T01:33:59.512Z,98096.91
2023-04-23T01:36:27.108Z,98100.16
2023-04-23T01:38:53.697Z,98090.75
2023-04-23T01:41:20.326Z,98081.06
2023-04-23T01:43:46.828Z,98083.50
2023-04-23T01:46:13.391Z,98076.72
2023-04-23T01:48:40.443Z,98075.63
2023-04-23T01:51:07.146Z,98079.38
2023-04-23T01:53:33.579Z,98082.09
2023-04-23T01:56:01.389Z,98076.66
2023-04-23T01:58:27.880Z,98075.88
2023-04-23T02:00:54.422Z,98076.69
2023-04-23T02:03:21.100Z,98074.78
2023-04-23T02:05:49.065Z,98081.03
2023-04-23T02:08:16.355Z,98078.03
2023-04-23T02:10:42.829Z,98085.31
2023-04-23T02:13:09.326Z,98082.59
2023-04-23T02:15:38.197Z,98076.13
2023-04-23T02:18:05.063Z,98085.25
2023-04-23T02:20:31.700Z,98082.63
2023-04-23T02:22:58.281Z,98087.72
2023-04-23T02:25:24.759Z,98078.75
2023-04-23T02:27:51.256Z,98073.03
2023-04-23T02:30:17.847Z,98078.09
2023-04-23T02:32:44.453Z,98073.06
2023-04-23T02:35:11.054Z,98079.53
2023-04-23T02:37:37.779Z,98079.28
2023-04-23T02:40:08.129Z,98082.56
2023-04-23T02:42:34.633Z,98079.34
2023-04-23T02:45:01.136Z,98076.63
2023-04-23T02:47:27.665Z,98080.66
2023-04-23T02:49:54.227Z,98082.25
2023-04-23T02:52:20.751Z,98080.84
2023-04-23T02:54:47.308Z,98083.00
2023-04-23T02:57:15.591Z,98078.16
2023-04-23T02:59:43.131Z,98084.63
2023-04-23T03:02:09.872Z,98074.94
2023-04-23T03:04:36.453Z,98077.41
2023-04-23T03:07:02.983Z,98074.94
2023-04-23T03:09:29.443Z,98072.00
2023-04-23T03:11:57.689Z,98067.97
2023-04-23T03:14:24.264Z,98054.75
2023-04-23T03:16:50.940Z,98059.00
2023-04-23T03:19:17.504Z,98054.97
2023-04-23T03:21:43.968Z,98059.31
2023-04-23T03:24:13.525Z,98063.88
2023-04-23T03:26:39.992Z,98063.88
2023-04-23T03:29:06.864Z,98067.97
2023-04-23T03:31:33.554Z,98060.41
2023-04-23T03:34:00.073Z,98064.69
2023-04-23T03:36:26.600Z,98063.28
2023-04-23T03:38:53.093Z,98061.34
2023-04-23T03:41:19.588Z,98061.94
2023-04-23T03:43:46.184Z,98060.56
2023-04-23T03:46:12.677Z,98060.31
2023-04-23T03:48:39.128Z,98061.94
2023-04-23T03:51:05.740Z,98059.75
2023-04-23T03:53:32.277Z,98070.22
2023-04-23T03:55:58.703Z,98062.75
2023-04-23T03:58:25.205Z,98072.38
2023-04-23T04:00:51.771Z,98068.13
2023-04-23T04:03:18.569Z,98066.25
2023-04-23T04:05:45.465Z,98068.91
2023-04-23T04:08:12.070Z,98060.84
2023-04-23T04:10:38.577Z,98057.94
2023-04-23T04:13:05.140Z,98058.16
2023-04-23T04:15:32.985Z,98050.88
2023-04-23T04:18:01.185Z,98053.78
2023-04-23T04:20:30.695Z,98055.94
2023-04-23T04:22:57.153Z,98058.06
2023-04-23T04:25:24.217Z,98073.16
2023-04-23T04:27:51.014Z,98064.03
2023-04-23T04:30:17.542Z,98058.41
2023-04-23T04:32:45.636Z,98057.06
2023-04-23T04:35:15.470Z,98062.91
2023-04-23T04:37:43.834Z,98060.78
2023-04-23T04:40:11.601Z,98053.56
2023-04-23T04:42:39.544Z,98048.41
2023-04-23T04:45:08.675Z,98053.44
2023-04-23T04:47:35.260Z,98044.56
2023-04-23T04:50:02.217Z,98045.88
2023-04-23T04:52:28.739Z,98042.34
2023-04-23T04:54:55.338Z,98047.78
2023-04-23T04:57:22.957Z,98051.34
2023-04-23T04:59:50.321Z,98054.84
2023-04-23T05:02:17.061Z,98058.28
2023-04-23T05:04:43.763Z,98055.84
2023-04-23T05:07:11.465Z,98052.34
2023-04-23T05:09:37.944Z,98052.38
2023-04-23T05:12:07.423Z,98053.75
2023-04-23T05:14:34.063Z,98052.63
2023-04-23T05:17:00.825Z,98049.88
2023-04-23T05:19:27.535Z,98053.50
2023-04-23T05:21:54.347Z,98051.91
2023-04-23T05:24:20.806Z,98050.28
2023-04-23T05:26:47.425Z,98038.16
2023-04-23T05:29:17.890Z,98041.41
2023-04-23T05:31:44.502Z,98048.66
2023-04-23T05:34:11.036Z,98048.41
2023-04-23T05:36:37.587Z,98042.63
2023-04-23T05:39:04.051Z,98041.25
2023-04-23T05:41:30.660Z,98046.13
2023-04-23T05:43:57.154Z,98027.34
2023-04-23T05:46:23.753Z,98036.03
2023-04-23T05:48:50.307Z,98023.09
2023-04-23T05:51:17.194Z,98033.63
2023-04-23T05:53:43.704Z,98034.50
2023-04-23T05:56:10.341Z,98028.56
2023-04-23T05:58:38.742Z,98031.78
2023-04-23T06:01:05.442Z,98033.97
2023-04-23T06:03:32.076Z,98027.22
2023-04-23T06:05:58.800Z,98021.34
2023-04-23T06:08:25.455Z,98018.91
2023-04-23T06:10:51.949Z,98013.56
2023-04-23T06:13:18.440Z,98014.38
2023-04-23T06:15:44.930Z,98014.63
2023-04-23T06:18:11.563Z,98012.50
2023-04-23T06:20:38.069Z,98006.84
2023-04-23T06:23:04.625Z,98007.66
2023-04-23T06:25:31.135Z,97997.72
2023-04-23T06:27:58.233Z,97990.75
2023-04-23T06:30:24.854Z,97985.63
2023-04-23T06:32:51.434Z,97989.41
2023-04-23T06:35:17.999Z,97992.38
2023-04-23T06:37:44.448Z,97983.75
2023-04-23T06:40:11.451Z,97974.84
2023-04-23T06:42:37.913Z,97957.88
2023-04-23T06:45:06.264Z,97968.94
2023-04-23T06:47:33.149Z,97983.84
2023-04-23T06:50:02.502Z,97985.19
2023-04-23T06:52:29.088Z,97977.84
2023-04-23T06:54:55.589Z,97983.56
2023-04-23T06:57:22.167Z,97969.63
2023-04-23T06:59:48.713Z,97959.72
2023-04-23T07:02:15.195Z,97955.41
2023-04-23T07:04:42.193Z,97951.66
2023-04-23T07:07:08.856Z,97948.94
2023-04-23T07:09:35.453Z,97951.91
2023-04-23T07:12:02.312Z,97961.41
2023-04-23T07:14:28.798Z,97952.69
2023-04-23T07:16:55.513Z,97950.28
2023-04-23T07:19:22.061Z,97939.53
2023-04-23T07:21:48.534Z,97945.78
2023-04-23T07:24:15.039Z,97944.47
2023-04-23T07:26:41.567Z,97932.88
2023-04-23T07:29:10.497Z,97939.53
2023-04-23T07:31:37.712Z,97935.84
2023-04-23T07:34:04.232Z,97937.22
2023-04-23T07:36:32.777Z,97938.47
2023-04-23T07:38:59.269Z,97929.94
2023-04-23T07:41:25.740Z,97924.09
2023-04-23T07:43:52.347Z,97922.84
2023-04-23T07:46:20.097Z,97917.50
2023-04-23T07:48:46.669Z,97917.72
2023-04-23T07:51:13.188Z,97916.03
2023-04-23T07:53:39.706Z,97917.94
2023-04-23T07:56:06.429Z,97906.06
2023-04-23T07:58:33.290Z,97903.34
2023-04-23T08:00:59.805Z,97905.72
2023-04-23T08:03:28.213Z,97899.91
2023-04-23T08:05:54.848Z,97901.38
2023-04-23T08:08:21.425Z,97900.16
2023-04-23T08:10:48.484Z,97896.69
2023-04-23T08:13:15.046Z,97894.44
2023-04-23T08:15:41.660Z,97890.38
2023-04-23T08:18:08.172Z,97886.25
2023-04-23T08:20:35.043Z,97882.81
2023-04-23T08:23:01.718Z,97887.56
2023-04-23T08:25:28.253Z,97883.03
2023-04-23T08:27:54.810Z,97878.88
2023-04-23T08:30:21.516Z,97881.91
2023-04-23T08:32:51.110Z,97874.47
2023-04-23T08:35:17.965Z,97873.22
2023-04-23T08:37:44.532Z,97874.81
2023-04-23T08:40:11.477Z,97867.22
2023-04-23T08:42:44.100Z,97870.03
2023-04-23T08:45:11.904Z,97863.97
2023-04-23T08:47:43.875Z,97862.22
2023-04-23T08:50:18.132Z,97865.53
2023-04-23T08:52:54.379Z,97854.34
2023-04-23T08:55:22.047Z,97852.53
2023-04-23T08:57:49.780Z,97840.97
2023-04-23T09:00:18.995Z,97851.84
2023-04-23T09:02:47.678Z,97844.22
2023-04-23T09:05:15.307Z,97842.28
2023-04-23T09:07:42.703Z,97836.78
2023-04-23T09:10:11.715Z,97825.69
2023-04-23T09:12:41.394Z,97832.00
2023-04-23T09:15:11.050Z,97815.81
2023-04-23T09:17:45.026Z,97816.81
2023-04-23T09:20:13.211Z,97812.47
2023-04-23T09:22:47.772Z,97811.91
2023-04-23T09:25:20.954Z,97814.88
2023-04-23T09:27:47.948Z,97807.56
2023-04-23T09:30:15.129Z,97799.81
2023-04-23T09:32:43.290Z,97795.47
2023-04-23T09:35:12.212Z,97785.78
2023-04-23T09:37:42.361Z,97783.47
2023-04-23T09:40:09.627Z,97783.81
2023-04-23T09:42:37.079Z,97779.50
2023-04-23T09:45:08.386Z,97772.59
2023-04-23T09:47:38.842Z,97770.66
2023-04-23T09:50:06.260Z,97759.56
2023-04-23T09:52:34.012Z,97770.00
2023-04-23T09:55:05.310Z,97766.44
2023-04-23T09:57:38.964Z,97761.09
2023-04-23T10:00:22.921Z,97760.06
2023-04-23T10:02:51.128Z,97749.06
2023-04-23T10:05:24.907Z,97752.34
2023-04-23T10:07:59.929Z,97733.72
2023-04-23T10:10:26.727Z,97743.28
2023-04-23T10:12:55.803Z,97734.25
2023-04-23T10:15:25.272Z,97741.31
2023-04-23T10:17:52.515Z,97727.81
2023-04-23T10:20:21.042Z,97712.28
2023-04-23T10:22:48.448Z,97711.31
2023-04-23T10:25:15.317Z,97707.91
2023-04-23T10:27:53.208Z,97715.06
2023-04-23T10:30:21.192Z,97713.31
2023-04-23T10:32:49.828Z,97717.56
2023-04-23T10:35:16.639Z,97703.91
2023-04-23T10:37:46.535Z,97699.97
2023-04-23T10:40:15.096Z,97694.41
2023-04-23T10:42:44.145Z,97679.56
2023-04-23T10:45:23.530Z,97685.94
2023-04-23T10:47:55.108Z,97677.50
2023-04-23T10:50:35.917Z,97669.81
2023-04-23T10:53:03.178Z,97668.88
2023-04-23T10:55:31.441Z,97667.44
2023-04-23T10:58:05.871Z,97659.03
2023-04-23T11:00:41.215Z,97656.75
2023-04-23T11:03:37.308Z,97651.31
2023-04-23T11:06:06.325Z,97636.53
2023-04-23T11:08:35.647Z,97631.06
2023-04-23T11:11:07.851Z,97628.47
2023-04-23T11:13:34.775Z,97627.78
2023-04-23T11:16:18.632Z,97622.81
2023-04-23T11:19:06.409Z,97609.69
2023-04-23T11:21:58.521Z,97601.31
2023-04-23T11:24:27.407Z,97603.38
2023-04-23T11:26:57.208Z,97598.84
2023-04-23T11:29:26.445Z,97602.22
2023-04-23T11:32:02.262Z,97595.63
2023-04-23T11:34:29.381Z,97589.25
2023-04-23T11:36:59.404Z,97577.47
2023-04-23T11:39:27.022Z,97578.41
2023-04-23T11:41:54.008Z,97573.88
2023-04-23T11:44:21.439Z,97561.44
2023-04-23T11:46:49.621Z,97560.72
2023-04-23T11:49:17.456Z,97559.06
2023-04-23T11:51:45.638Z,97561.72
2023-04-23T11:54:13.801Z,97556.59
2023-04-23T11:56:41.260Z,97553.09
2023-04-23T11:59:08.345Z,97543.09
2023-04-23T12:01:48.263Z,97540.38
2023-04-23T12:04:19.546Z,97529.66
2023-04-23T12:06:47.829Z,97533.78
2023-04-23T12:09:16.019Z,97524.16
2023-04-23T12:11:43.885Z,97519.47
2023-04-23T12:14:12.392Z,97526.19
2023-04-23T12:16:43.503Z,97544.03
2023-04-23T12:19:13.398Z,97538.22
2023-04-23T12:22:03.082Z,97538.09
2023-04-23T12:24:30.548Z,97543.41
2023-04-23T12:27:00.685Z,97542.47
2023-04-23T12:29:30.091Z,97535.75
2023-04-23T12:31:59.181Z,97527.28
2023-04-23T12:34:25.809Z,97525.72
2023-04-23T12:36:55.145Z,97531.75
2023-04-23T12:39:31.991Z,97525.84
2023-04-23T12:42:05.186Z,97521.34
2023-04-23T12:44:34.513Z,97523.63
2023-04-23T12:47:08.408Z,97514.72
2023-04-23T12:49:36.254Z,97511.84
2023-04-23T12:52:04.401Z,97520.66
2023-04-23T12:54:33.215Z,97516.03
2023-04-23T12:57:02.986Z,97509.81
2023-04-23T12:59:30.886Z,97514.28
2023-04-23T13:02:01.906Z,97507.78
2023-04-23T13:04:29.982Z,97497.13
2023-04-23T13:06:57.008Z,97502.59
2023-04-23T13:09:39.953Z,97495.38
2023-04-23T13:12:06.418Z,97501.38
2023-04-23T13:14:32.926Z,97495.84
2023-04-23T13:16:59.461Z,97499.00
2023-04-23T13:19:26.313Z,97498.28
2023-04-23T13:21:53.553Z,97510.50
2023-04-23T13:24:20.135Z,97508.03
2023-04-23T13:26:46.605Z,97520.91
2023-04-23T13:29:13.207Z,97509.31
2023-04-23T13:31:39.846Z,97514.75
2023-04-23T13:34:06.384Z,97493.47
2023-04-23T13:36:32.926Z,97480.19
2023-04-23T13:38:59.478Z,97489.41
2023-04-23T13:41:26.016Z,97488.66
2023-04-23T13:43:52.777Z,97496.16
2023-04-23T13:46:19.762Z,97490.78
2023-04-23T13:48:46.420Z,97479.72
2023-04-23T13:51:32.646Z,97491.28
2023-04-23T13:53:59.422Z,97478.38
2023-04-23T13:56:30.396Z,97476.78
2023-04-23T13:59:18.056Z,97478.44
2023-04-23T14:01:47.230Z,97477.66
2023-04-23T14:04:13.918Z,97485.00
2023-04-23T14:06:40.637Z,97475.72
2023-04-23T14:09:07.129Z,97480.88
2023-04-23T14:11:33.887Z,97471.66
2023-04-23T14:14:01.209Z,97468.31
2023-04-23T14:16:27.861Z,97457.56
2023-04-23T14:18:54.455Z,97463.53
2023-04-23T14:21:22.461Z,97473.25
2023-04-23T14:24:00.871Z,97474.53
2023-04-23T14:29:30.884Z,97474.88
2023-04-23T14:31:57.389Z,97456.88
2023-04-23T14:34:23.972Z,97463.31
2023-04-23T14:36:53.095Z,97458.28
2023-04-23T14:39:22.232Z,97461.94
2023-04-23T14:41:49.032Z,97464.56
2023-04-23T14:44:15.623Z,97459.13
2023-04-23T14:46:42.118Z,97455.81
2023-04-23T14:49:08.923Z,97458.78
2023-04-23T14:51:35.717Z,97458.91
2023-04-23T14:54:02.308Z,97455.81
2023-04-23T14:56:28.848Z,97456.91
2023-04-23T14:58:55.429Z,97470.03
2023-04-23T15:01:21.981Z,97470.50
2023-04-23T15:03:48.699Z,97476.38
2023-04-23T15:06:15.571Z,97490.50
2023-04-23T15:08:42.115Z,97482.34
